sensor_id;sensor_type;location;lat;lon;timestamp;P1;durP1;ratioP1;P2;durP2;ratioP2
54193;SDS011;40102;50.906;6.972;2023-02-28T00:00:28;3.47;;;1.80;;
54193;SDS011;40102;50.906;6.972;2023-02-28T00:02:54;3.55;;;1.73;;
54193;SDS011;40102;50.906;6.972;2023-02-28T00:05:20;4.50;;;1.85;;
54193;SDS011;40102;50.906;6.972;2023-02-28T00:07:47;4.53;;;1.90;;
54193;SDS011;40102;50.906;6.972;2023-02-28T00:10:14;3.20;;;1.70;;
54193;SDS011;40102;50.906;6.972;2023-02-28T00:12:46;4.13;;;1.75;;
54193;SDS011;40102;50.906;6.972;2023-02-28T00:15:12;3.15;;;1.83;;
54193;SDS011;40102;50.906;6.972;2023-02-28T00:17:37;6.00;;;1.90;;
54193;SDS011;40102;50.906;6.972;2023-02-28T00:20:03;6.07;;;2.10;;
54193;SDS011;40102;50.906;6.972;2023-02-28T00:22:33;5.40;;;2.00;;
54193;SDS011;40102;50.906;6.972;2023-02-28T00:24:58;3.30;;;1.50;;
54193;SDS011;40102;50.906;6.972;2023-02-28T00:27:23;3.08;;;1.90;;
54193;SDS011;40102;50.906;6.972;2023-02-28T00:29:49;3.45;;;2.05;;
54193;SDS011;40102;50.906;6.972;2023-02-28T00:32:14;3.30;;;1.85;;
54193;SDS011;40102;50.906;6.972;2023-02-28T00:34:39;2.75;;;1.70;;
54193;SDS011;40102;50.906;6.972;2023-02-28T00:37:05;4.20;;;1.77;;
54193;SDS011;40102;50.906;6.972;2023-02-28T00:39:33;3.78;;;1.80;;
54193;SDS011;40102;50.906;6.972;2023-02-28T00:41:59;3.45;;;1.55;;
54193;SDS011;40102;50.906;6.972;2023-02-28T00:44:24;3.28;;;1.77;;
54193;SDS011;40102;50.906;6.972;2023-02-28T00:46:50;3.45;;;1.85;;
54193;SDS011;40102;50.906;6.972;2023-02-28T00:49:16;5.40;;;2.10;;
54193;SDS011;40102;50.906;6.972;2023-02-28T00:51:42;2.30;;;1.80;;
54193;SDS011;40102;50.906;6.972;2023-02-28T00:54:07;2.75;;;1.75;;
54193;SDS011;40102;50.906;6.972;2023-02-28T00:56:32;3.53;;;1.52;;
54193;SDS011;40102;50.906;6.972;2023-02-28T00:58:58;3.08;;;1.80;;
54193;SDS011;40102;50.906;6.972;2023-02-28T01:01:23;5.38;;;1.67;;
54193;SDS011;40102;50.906;6.972;2023-02-28T01:03:48;3.28;;;1.83;;
54193;SDS011;40102;50.906;6.972;2023-02-28T01:06:14;4.43;;;1.48;;
54193;SDS011;40102;50.906;6.972;2023-02-28T01:08:41;4.90;;;1.83;;
54193;SDS011;40102;50.906;6.972;2023-02-28T01:11:07;2.67;;;1.65;;
54193;SDS011;40102;50.906;6.972;2023-02-28T01:13:34;3.10;;;1.30;;
54193;SDS011;40102;50.906;6.972;2023-02-28T01:16:00;5.03;;;1.77;;
54193;SDS011;40102;50.906;6.972;2023-02-28T01:18:25;2.45;;;1.40;;
54193;SDS011;40102;50.906;6.972;2023-02-28T01:20:50;3.03;;;1.20;;
54193;SDS011;40102;50.906;6.972;2023-02-28T01:23:17;2.58;;;1.30;;
54193;SDS011;40102;50.906;6.972;2023-02-28T01:25:44;4.38;;;1.90;;
54193;SDS011;40102;50.906;6.972;2023-02-28T01:28:10;3.80;;;1.83;;
54193;SDS011;40102;50.906;6.972;2023-02-28T01:30:35;3.42;;;1.45;;
54193;SDS011;40102;50.906;6.972;2023-02-28T01:33:00;3.70;;;1.23;;
54193;SDS011;40102;50.906;6.972;2023-02-28T01:35:26;2.75;;;1.55;;
54193;SDS011;40102;50.906;6.972;2023-02-28T01:37:51;2.78;;;1.50;;
54193;SDS011;40102;50.906;6.972;2023-02-28T01:40:17;2.10;;;1.38;;
54193;SDS011;40102;50.906;6.972;2023-02-28T01:42:42;2.47;;;1.50;;
54193;SDS011;40102;50.906;6.972;2023-02-28T01:47:36;3.33;;;1.65;;
54193;SDS011;40102;50.906;6.972;2023-02-28T01:50:07;4.82;;;1.85;;
54193;SDS011;40102;50.906;6.972;2023-02-28T01:52:37;2.10;;;1.20;;
54193;SDS011;40102;50.906;6.972;2023-02-28T01:55:02;4.13;;;1.83;;
54193;SDS011;40102;50.906;6.972;2023-02-28T01:57:35;3.03;;;1.70;;
54193;SDS011;40102;50.906;6.972;2023-02-28T02:00:15;2.40;;;1.40;;
54193;SDS011;40102;50.906;6.972;2023-02-28T02:02:45;2.00;;;1.40;;
54193;SDS011;40102;50.906;6.972;2023-02-28T02:05:17;3.38;;;1.67;;
54193;SDS011;40102;50.906;6.972;2023-02-28T02:07:48;3.00;;;1.58;;
54193;SDS011;40102;50.906;6.972;2023-02-28T02:10:18;2.88;;;1.80;;
54193;SDS011;40102;50.906;6.972;2023-02-28T02:15:45;3.20;;;1.30;;
54193;SDS011;40102;50.906;6.972;2023-02-28T02:18:37;2.15;;;1.40;;
54193;SDS011;40102;50.906;6.972;2023-02-28T02:26:52;2.72;;;1.40;;
54193;SDS011;40102;50.906;6.972;2023-02-28T02:32:17;2.97;;;1.50;;
54193;SDS011;40102;50.906;6.972;2023-02-28T02:35:31;2.78;;;1.30;;
54193;SDS011;40102;50.906;6.972;2023-02-28T02:38:10;4.03;;;1.43;;
54193;SDS011;40102;50.906;6.972;2023-02-28T02:40:59;2.17;;;1.38;;
54193;SDS011;40102;50.906;6.972;2023-02-28T02:43:29;1.92;;;1.20;;
54193;SDS011;40102;50.906;6.972;2023-02-28T02:48:45;3.50;;;1.50;;
54193;SDS011;40102;50.906;6.972;2023-02-28T02:51:14;2.22;;;1.40;;
54193;SDS011;40102;50.906;6.972;2023-02-28T02:53:44;1.85;;;1.35;;
54193;SDS011;40102;50.906;6.972;2023-02-28T02:56:23;3.10;;;1.40;;
54193;SDS011;40102;50.906;6.972;2023-02-28T02:58:52;2.22;;;1.25;;
54193;SDS011;40102;50.906;6.972;2023-02-28T03:01:21;2.70;;;1.38;;
54193;SDS011;40102;50.906;6.972;2023-02-28T03:03:56;2.60;;;1.30;;
54193;SDS011;40102;50.906;6.972;2023-02-28T03:06:23;1.58;;;1.10;;
54193;SDS011;40102;50.906;6.972;2023-02-28T03:08:49;2.85;;;1.45;;
54193;SDS011;40102;50.906;6.972;2023-02-28T03:11:15;2.58;;;1.60;;
54193;SDS011;40102;50.906;6.972;2023-02-28T03:27:24;2.13;;;1.38;;
54193;SDS011;40102;50.906;6.972;2023-02-28T03:30:01;2.83;;;1.77;;
54193;SDS011;40102;50.906;6.972;2023-02-28T03:32:35;3.10;;;1.65;;
54193;SDS011;40102;50.906;6.972;2023-02-28T03:35:08;3.15;;;1.48;;
54193;SDS011;40102;50.906;6.972;2023-02-28T03:37:39;2.83;;;1.60;;
54193;SDS011;40102;50.906;6.972;2023-02-28T03:40:09;4.10;;;1.83;;
54193;SDS011;40102;50.906;6.972;2023-02-28T03:42:38;2.78;;;1.50;;
54193;SDS011;40102;50.906;6.972;2023-02-28T03:45:11;2.75;;;1.30;;
54193;SDS011;40102;50.906;6.972;2023-02-28T03:47:41;2.55;;;1.63;;
54193;SDS011;40102;50.906;6.972;2023-02-28T03:52:42;3.13;;;1.40;;
54193;SDS011;40102;50.906;6.972;2023-02-28T03:55:15;2.10;;;1.35;;
54193;SDS011;40102;50.906;6.972;2023-02-28T04:00:18;4.63;;;1.70;;
54193;SDS011;40102;50.906;6.972;2023-02-28T04:02:49;2.28;;;1.55;;
54193;SDS011;40102;50.906;6.972;2023-02-28T04:05:17;2.45;;;1.60;;
54193;SDS011;40102;50.906;6.972;2023-02-28T04:07:44;2.70;;;1.58;;
54193;SDS011;40102;50.906;6.972;2023-02-28T04:10:10;2.13;;;1.35;;
54193;SDS011;40102;50.906;6.972;2023-02-28T04:12:36;3.45;;;1.58;;
54193;SDS011;40102;50.906;6.972;2023-02-28T04:15:02;2.97;;;1.52;;
54193;SDS011;40102;50.906;6.972;2023-02-28T04:17:27;2.15;;;1.23;;
54193;SDS011;40102;50.906;6.972;2023-02-28T04:19:53;1.88;;;1.40;;
54193;SDS011;40102;50.906;6.972;2023-02-28T04:22:21;1.85;;;1.20;;
54193;SDS011;40102;50.906;6.972;2023-02-28T04:24:46;2.15;;;1.40;;
54193;SDS011;40102;50.906;6.972;2023-02-28T04:27:12;2.22;;;1.48;;
54193;SDS011;40102;50.906;6.972;2023-02-28T04:29:37;1.45;;;1.08;;
54193;SDS011;40102;50.906;6.972;2023-02-28T04:32:03;2.70;;;1.63;;
54193;SDS011;40102;50.906;6.972;2023-02-28T04:34:29;2.40;;;1.25;;
54193;SDS011;40102;50.906;6.972;2023-02-28T04:36:56;2.55;;;1.48;;
54193;SDS011;40102;50.906;6.972;2023-02-28T04:39:22;2.05;;;1.50;;
54193;SDS011;40102;50.906;6.972;2023-02-28T04:41:49;2.10;;;1.42;;
54193;SDS011;40102;50.906;6.972;2023-02-28T04:44:14;4.45;;;1.40;;
54193;SDS011;40102;50.906;6.972;2023-02-28T04:46:40;3.20;;;1.70;;
54193;SDS011;40102;50.906;6.972;2023-02-28T04:49:06;5.57;;;1.92;;
54193;SDS011;40102;50.906;6.972;2023-02-28T04:51:32;2.63;;;1.23;;
54193;SDS011;40102;50.906;6.972;2023-02-28T04:53:58;2.53;;;1.40;;
54193;SDS011;40102;50.906;6.972;2023-02-28T04:56:23;2.53;;;1.52;;
54193;SDS011;40102;50.906;6.972;2023-02-28T04:58:49;3.42;;;1.98;;
54193;SDS011;40102;50.906;6.972;2023-02-28T05:01:17;2.90;;;1.80;;
54193;SDS011;40102;50.906;6.972;2023-02-28T05:03:45;4.72;;;1.80;;
54193;SDS011;40102;50.906;6.972;2023-02-28T05:06:12;3.13;;;1.75;;
54193;SDS011;40102;50.906;6.972;2023-02-28T05:08:38;3.80;;;1.50;;
54193;SDS011;40102;50.906;6.972;2023-02-28T05:11:04;2.42;;;1.60;;
54193;SDS011;40102;50.906;6.972;2023-02-28T05:13:32;2.30;;;1.50;;
54193;SDS011;40102;50.906;6.972;2023-02-28T05:15:57;2.28;;;1.40;;
54193;SDS011;40102;50.906;6.972;2023-02-28T05:18:22;2.03;;;1.38;;
54193;SDS011;40102;50.906;6.972;2023-02-28T05:20:48;2.80;;;1.40;;
54193;SDS011;40102;50.906;6.972;2023-02-28T05:23:13;3.72;;;1.60;;
54193;SDS011;40102;50.906;6.972;2023-02-28T05:25:41;1.92;;;1.30;;
54193;SDS011;40102;50.906;6.972;2023-02-28T05:28:07;2.67;;;1.63;;
54193;SDS011;40102;50.906;6.972;2023-02-28T05:30:32;2.83;;;1.77;;
54193;SDS011;40102;50.906;6.972;2023-02-28T05:32:58;2.13;;;1.58;;
54193;SDS011;40102;50.906;6.972;2023-02-28T05:35:24;5.07;;;1.85;;
54193;SDS011;40102;50.906;6.972;2023-02-28T05:37:50;2.67;;;1.58;;
54193;SDS011;40102;50.906;6.972;2023-02-28T05:40:16;2.72;;;1.60;;
54193;SDS011;40102;50.906;6.972;2023-02-28T05:42:42;2.13;;;1.38;;
54193;SDS011;40102;50.906;6.972;2023-02-28T05:45:07;2.67;;;1.30;;
54193;SDS011;40102;50.906;6.972;2023-02-28T05:47:34;1.92;;;1.40;;
54193;SDS011;40102;50.906;6.972;2023-02-28T05:49:59;2.25;;;1.65;;
54193;SDS011;40102;50.906;6.972;2023-02-28T05:52:25;2.35;;;1.40;;
54193;SDS011;40102;50.906;6.972;2023-02-28T05:54:51;2.95;;;1.70;;
54193;SDS011;40102;50.906;6.972;2023-02-28T05:57:16;3.33;;;1.77;;
54193;SDS011;40102;50.906;6.972;2023-02-28T05:59:42;3.53;;;1.80;;
54193;SDS011;40102;50.906;6.972;2023-02-28T06:02:10;3.15;;;1.88;;
54193;SDS011;40102;50.906;6.972;2023-02-28T06:04:38;2.92;;;1.58;;
54193;SDS011;40102;50.906;6.972;2023-02-28T06:07:03;2.17;;;1.48;;
54193;SDS011;40102;50.906;6.972;2023-02-28T06:09:28;2.13;;;1.40;;
54193;SDS011;40102;50.906;6.972;2023-02-28T06:11:58;3.72;;;1.83;;
54193;SDS011;40102;50.906;6.972;2023-02-28T06:14:24;2.55;;;1.35;;
54193;SDS011;40102;50.906;6.972;2023-02-28T06:16:50;2.22;;;1.45;;
54193;SDS011;40102;50.906;6.972;2023-02-28T06:19:15;3.33;;;1.70;;
54193;SDS011;40102;50.906;6.972;2023-02-28T06:21:41;3.22;;;1.73;;
54193;SDS011;40102;50.906;6.972;2023-02-28T06:24:07;2.67;;;1.70;;
54193;SDS011;40102;50.906;6.972;2023-02-28T06:26:33;2.83;;;1.75;;
54193;SDS011;40102;50.906;6.972;2023-02-28T06:28:59;5.63;;;1.70;;
54193;SDS011;40102;50.906;6.972;2023-02-28T06:31:25;3.35;;;1.67;;
54193;SDS011;40102;50.906;6.972;2023-02-28T06:33:51;4.78;;;1.95;;
54193;SDS011;40102;50.906;6.972;2023-02-28T06:36:17;3.95;;;1.90;;
54193;SDS011;40102;50.906;6.972;2023-02-28T06:38:43;4.03;;;1.85;;
54193;SDS011;40102;50.906;6.972;2023-02-28T06:41:09;3.42;;;1.70;;
54193;SDS011;40102;50.906;6.972;2023-02-28T06:43:36;2.65;;;1.60;;
54193;SDS011;40102;50.906;6.972;2023-02-28T06:46:04;3.45;;;2.00;;
54193;SDS011;40102;50.906;6.972;2023-02-28T06:48:31;4.93;;;2.00;;
54193;SDS011;40102;50.906;6.972;2023-02-28T06:51:03;4.15;;;2.05;;
54193;SDS011;40102;50.906;6.972;2023-02-28T06:53:30;4.93;;;2.22;;
54193;SDS011;40102;50.906;6.972;2023-02-28T06:55:55;3.80;;;2.05;;
54193;SDS011;40102;50.906;6.972;2023-02-28T06:58:21;4.20;;;1.85;;
54193;SDS011;40102;50.906;6.972;2023-02-28T07:00:50;5.30;;;1.98;;
54193;SDS011;40102;50.906;6.972;2023-02-28T07:03:16;3.83;;;1.93;;
54193;SDS011;40102;50.906;6.972;2023-02-28T07:05:42;3.35;;;2.00;;
54193;SDS011;40102;50.906;6.972;2023-02-28T07:08:08;4.05;;;2.25;;
54193;SDS011;40102;50.906;6.972;2023-02-28T07:10:33;3.25;;;1.90;;
54193;SDS011;40102;50.906;6.972;2023-02-28T07:12:59;4.28;;;2.17;;
54193;SDS011;40102;50.906;6.972;2023-02-28T07:15:25;3.92;;;2.20;;
54193;SDS011;40102;50.906;6.972;2023-02-28T07:17:51;4.50;;;2.20;;
54193;SDS011;40102;50.906;6.972;2023-02-28T07:20:16;5.85;;;2.28;;
54193;SDS011;40102;50.906;6.972;2023-02-28T07:22:42;4.93;;;2.38;;
54193;SDS011;40102;50.906;6.972;2023-02-28T07:25:07;4.18;;;2.30;;
54193;SDS011;40102;50.906;6.972;2023-02-28T07:27:33;3.00;;;2.03;;
54193;SDS011;40102;50.906;6.972;2023-02-28T07:29:59;2.85;;;1.77;;
54193;SDS011;40102;50.906;6.972;2023-02-28T07:32:26;2.80;;;2.03;;
54193;SDS011;40102;50.906;6.972;2023-02-28T07:34:52;4.40;;;2.47;;
54193;SDS011;40102;50.906;6.972;2023-02-28T07:37:18;3.55;;;2.10;;
54193;SDS011;40102;50.906;6.972;2023-02-28T07:39:43;5.40;;;2.30;;
54193;SDS011;40102;50.906;6.972;2023-02-28T07:42:08;3.28;;;1.88;;
54193;SDS011;40102;50.906;6.972;2023-02-28T07:44:36;3.03;;;1.98;;
54193;SDS011;40102;50.906;6.972;2023-02-28T07:47:05;3.63;;;2.17;;
54193;SDS011;40102;50.906;6.972;2023-02-28T07:49:37;2.45;;;1.63;;
54193;SDS011;40102;50.906;6.972;2023-02-28T07:52:03;3.22;;;2.03;;
54193;SDS011;40102;50.906;6.972;2023-02-28T07:54:30;2.70;;;1.80;;
54193;SDS011;40102;50.906;6.972;2023-02-28T07:56:56;2.75;;;1.67;;
54193;SDS011;40102;50.906;6.972;2023-02-28T07:59:21;2.75;;;1.90;;
54193;SDS011;40102;50.906;6.972;2023-02-28T08:01:47;2.92;;;1.83;;
54193;SDS011;40102;50.906;6.972;2023-02-28T08:04:15;2.80;;;1.70;;
54193;SDS011;40102;50.906;6.972;2023-02-28T08:06:41;2.90;;;1.60;;
54193;SDS011;40102;50.906;6.972;2023-02-28T08:09:06;2.80;;;1.70;;
54193;SDS011;40102;50.906;6.972;2023-02-28T08:11:32;2.88;;;1.60;;
54193;SDS011;40102;50.906;6.972;2023-02-28T08:13:57;3.90;;;1.88;;
54193;SDS011;40102;50.906;6.972;2023-02-28T08:16:23;3.13;;;1.80;;
54193;SDS011;40102;50.906;6.972;2023-02-28T08:18:49;3.17;;;1.75;;
54193;SDS011;40102;50.906;6.972;2023-02-28T08:21:17;2.08;;;1.27;;
54193;SDS011;40102;50.906;6.972;2023-02-28T08:23:46;3.20;;;1.60;;
54193;SDS011;40102;50.906;6.972;2023-02-28T08:26:16;3.53;;;1.88;;
54193;SDS011;40102;50.906;6.972;2023-02-28T08:28:42;2.40;;;1.45;;
54193;SDS011;40102;50.906;6.972;2023-02-28T08:31:10;2.13;;;1.55;;
54193;SDS011;40102;50.906;6.972;2023-02-28T08:33:38;2.95;;;1.25;;
54193;SDS011;40102;50.906;6.972;2023-02-28T08:36:04;3.92;;;1.48;;
54193;SDS011;40102;50.906;6.972;2023-02-28T08:38:29;2.33;;;1.45;;
54193;SDS011;40102;50.906;6.972;2023-02-28T08:40:58;3.42;;;1.48;;
54193;SDS011;40102;50.906;6.972;2023-02-28T08:43:25;1.73;;;1.13;;
54193;SDS011;40102;50.906;6.972;2023-02-28T08:45:52;1.95;;;1.40;;
54193;SDS011;40102;50.906;6.972;2023-02-28T08:48:18;1.92;;;1.40;;
54193;SDS011;40102;50.906;6.972;2023-02-28T08:50:43;2.08;;;1.30;;
54193;SDS011;40102;50.906;6.972;2023-02-28T08:53:08;2.83;;;1.30;;
54193;SDS011;40102;50.906;6.972;2023-02-28T08:55:34;2.42;;;1.40;;
54193;SDS011;40102;50.906;6.972;2023-02-28T08:57:59;4.55;;;1.50;;
54193;SDS011;40102;50.906;6.972;2023-02-28T09:00:26;2.50;;;1.60;;
54193;SDS011;40102;50.906;6.972;2023-02-28T09:02:52;2.30;;;1.20;;
54193;SDS011;40102;50.906;6.972;2023-02-28T09:05:17;2.88;;;1.45;;
54193;SDS011;40102;50.906;6.972;2023-02-28T09:07:42;1.80;;;1.10;;
54193;SDS011;40102;50.906;6.972;2023-02-28T09:10:09;1.70;;;1.35;;
54193;SDS011;40102;50.906;6.972;2023-02-28T09:12:35;2.08;;;1.10;;
54193;SDS011;40102;50.906;6.972;2023-02-28T09:15:00;2.63;;;1.10;;
54193;SDS011;40102;50.906;6.972;2023-02-28T09:17:25;1.92;;;1.15;;
54193;SDS011;40102;50.906;6.972;2023-02-28T09:19:51;1.58;;;0.90;;
54193;SDS011;40102;50.906;6.972;2023-02-28T09:22:16;1.25;;;1.00;;
54193;SDS011;40102;50.906;6.972;2023-02-28T09:24:42;2.08;;;1.17;;
54193;SDS011;40102;50.906;6.972;2023-02-28T09:27:07;1.77;;;1.35;;
54193;SDS011;40102;50.906;6.972;2023-02-28T09:29:33;2.08;;;0.98;;
54193;SDS011;40102;50.906;6.972;2023-02-28T09:31:59;2.90;;;1.23;;
54193;SDS011;40102;50.906;6.972;2023-02-28T09:34:25;2.15;;;1.10;;
54193;SDS011;40102;50.906;6.972;2023-02-28T09:36:51;1.65;;;1.05;;
54193;SDS011;40102;50.906;6.972;2023-02-28T09:39:19;1.77;;;1.02;;
54193;SDS011;40102;50.906;6.972;2023-02-28T09:41:47;1.63;;;1.13;;
54193;SDS011;40102;50.906;6.972;2023-02-28T09:46:48;1.55;;;1.00;;
54193;SDS011;40102;50.906;6.972;2023-02-28T09:49:25;1.77;;;1.13;;
54193;SDS011;40102;50.906;6.972;2023-02-28T09:54:30;2.85;;;1.25;;
54193;SDS011;40102;50.906;6.972;2023-02-28T09:59:39;3.67;;;1.00;;
54193;SDS011;40102;50.906;6.972;2023-02-28T10:04:51;1.95;;;1.33;;
54193;SDS011;40102;50.906;6.972;2023-02-28T10:07:28;1.75;;;1.17;;
54193;SDS011;40102;50.906;6.972;2023-02-28T10:10:07;1.98;;;1.00;;
54193;SDS011;40102;50.906;6.972;2023-02-28T10:12:46;2.60;;;1.50;;
54193;SDS011;40102;50.906;6.972;2023-02-28T10:15:14;2.03;;;1.20;;
54193;SDS011;40102;50.906;6.972;2023-02-28T10:17:42;1.90;;;1.10;;
54193;SDS011;40102;50.906;6.972;2023-02-28T10:20:14;2.00;;;1.30;;
54193;SDS011;40102;50.906;6.972;2023-02-28T10:23:08;2.67;;;1.40;;
54193;SDS011;40102;50.906;6.972;2023-02-28T10:25:39;1.88;;;1.27;;
54193;SDS011;40102;50.906;6.972;2023-02-28T10:30:34;2.10;;;1.40;;
54193;SDS011;40102;50.906;6.972;2023-02-28T10:33:01;2.10;;;1.20;;
54193;SDS011;40102;50.906;6.972;2023-02-28T10:35:27;2.10;;;1.30;;
54193;SDS011;40102;50.906;6.972;2023-02-28T10:37:56;1.70;;;1.30;;
54193;SDS011;40102;50.906;6.972;2023-02-28T10:45:28;2.83;;;1.35;;
54193;SDS011;40102;50.906;6.972;2023-02-28T10:48:02;4.97;;;1.40;;
54193;SDS011;40102;50.906;6.972;2023-02-28T10:50:51;2.28;;;1.20;;
54193;SDS011;40102;50.906;6.972;2023-02-28T11:01:08;4.38;;;1.40;;
54193;SDS011;40102;50.906;6.972;2023-02-28T11:03:38;3.47;;;1.35;;
54193;SDS011;40102;50.906;6.972;2023-02-28T11:06:08;2.60;;;1.48;;
54193;SDS011;40102;50.906;6.972;2023-02-28T11:11:51;2.03;;;1.20;;
54193;SDS011;40102;50.906;6.972;2023-02-28T11:14:21;2.47;;;1.67;;
54193;SDS011;40102;50.906;6.972;2023-02-28T11:16:53;2.58;;;1.50;;
54193;SDS011;40102;50.906;6.972;2023-02-28T11:19:32;3.30;;;1.55;;
54193;SDS011;40102;50.906;6.972;2023-02-28T11:22:09;2.95;;;1.67;;
54193;SDS011;40102;50.906;6.972;2023-02-28T11:24:42;2.08;;;1.40;;
54193;SDS011;40102;50.906;6.972;2023-02-28T11:29:57;2.55;;;1.50;;
54193;SDS011;40102;50.906;6.972;2023-02-28T11:32:24;2.55;;;1.30;;
54193;SDS011;40102;50.906;6.972;2023-02-28T11:35:01;3.47;;;1.80;;
54193;SDS011;40102;50.906;6.972;2023-02-28T11:37:28;3.05;;;1.60;;
54193;SDS011;40102;50.906;6.972;2023-02-28T11:39:56;1.85;;;1.42;;
54193;SDS011;40102;50.906;6.972;2023-02-28T11:47:56;3.17;;;1.70;;
54193;SDS011;40102;50.906;6.972;2023-02-28T11:50:26;2.55;;;1.33;;
54193;SDS011;40102;50.906;6.972;2023-02-28T11:53:01;2.20;;;1.40;;
54193;SDS011;40102;50.906;6.972;2023-02-28T11:55:37;2.28;;;1.30;;
54193;SDS011;40102;50.906;6.972;2023-02-28T12:00:52;2.45;;;1.33;;
54193;SDS011;40102;50.906;6.972;2023-02-28T12:03:31;3.00;;;1.60;;
54193;SDS011;40102;50.906;6.972;2023-02-28T12:11:23;3.05;;;1.77;;
54193;SDS011;40102;50.906;6.972;2023-02-28T12:16:52;2.67;;;1.55;;
54193;SDS011;40102;50.906;6.972;2023-02-28T12:19:25;2.60;;;1.52;;
54193;SDS011;40102;50.906;6.972;2023-02-28T12:24:55;4.22;;;1.98;;
54193;SDS011;40102;50.906;6.972;2023-02-28T12:27:39;2.28;;;1.45;;
54193;SDS011;40102;50.906;6.972;2023-02-28T12:30:21;3.83;;;1.80;;
54193;SDS011;40102;50.906;6.972;2023-02-28T12:32:49;2.70;;;1.70;;
54193;SDS011;40102;50.906;6.972;2023-02-28T12:38:21;2.38;;;1.80;;
54193;SDS011;40102;50.906;6.972;2023-02-28T12:43:20;3.58;;;1.70;;
54193;SDS011;40102;50.906;6.972;2023-02-28T12:45:55;3.88;;;1.70;;
54193;SDS011;40102;50.906;6.972;2023-02-28T12:48:25;3.08;;;2.00;;
54193;SDS011;40102;50.906;6.972;2023-02-28T12:50:55;2.40;;;1.65;;
54193;SDS011;40102;50.906;6.972;2023-02-28T13:04:07;3.35;;;1.88;;
54193;SDS011;40102;50.906;6.972;2023-02-28T13:09:35;2.75;;;1.80;;
54193;SDS011;40102;50.906;6.972;2023-02-28T13:12:00;4.28;;;2.10;;
54193;SDS011;40102;50.906;6.972;2023-02-28T13:14:30;3.13;;;1.80;;
54193;SDS011;40102;50.906;6.972;2023-02-28T13:19:35;3.55;;;2.00;;
54193;SDS011;40102;50.906;6.972;2023-02-28T13:27:47;2.90;;;1.95;;
54193;SDS011;40102;50.906;6.972;2023-02-28T13:33:20;4.20;;;2.40;;
54193;SDS011;40102;50.906;6.972;2023-02-28T13:35:46;2.83;;;2.05;;
54193;SDS011;40102;50.906;6.972;2023-02-28T13:38:17;3.55;;;2.28;;
54193;SDS011;40102;50.906;6.972;2023-02-28T13:40:50;2.83;;;1.92;;
54193;SDS011;40102;50.906;6.972;2023-02-28T13:43:16;2.80;;;2.20;;
54193;SDS011;40102;50.906;6.972;2023-02-28T13:46:03;3.22;;;2.38;;
54193;SDS011;40102;50.906;6.972;2023-02-28T13:48:33;3.20;;;2.03;;
54193;SDS011;40102;50.906;6.972;2023-02-28T13:50:58;4.30;;;2.17;;
54193;SDS011;40102;50.906;6.972;2023-02-28T13:53:27;2.78;;;2.00;;
54193;SDS011;40102;50.906;6.972;2023-02-28T13:58:54;3.30;;;2.15;;
54193;SDS011;40102;50.906;6.972;2023-02-28T14:01:31;7.32;;;2.20;;
54193;SDS011;40102;50.906;6.972;2023-02-28T14:06:56;3.50;;;2.33;;
54193;SDS011;40102;50.906;6.972;2023-02-28T14:09:25;2.50;;;2.08;;
54193;SDS011;40102;50.906;6.972;2023-02-28T14:12:50;3.20;;;2.13;;
54193;SDS011;40102;50.906;6.972;2023-02-28T14:15:04;3.95;;;2.33;;
54193;SDS011;40102;50.906;6.972;2023-02-28T14:17:55;3.35;;;2.05;;
54193;SDS011;40102;50.906;6.972;2023-02-28T14:20:25;3.90;;;2.05;;
54193;SDS011;40102;50.906;6.972;2023-02-28T14:25:47;3.65;;;2.10;;
54193;SDS011;40102;50.906;6.972;2023-02-28T14:31:18;3.30;;;2.00;;
54193;SDS011;40102;50.906;6.972;2023-02-28T14:33:57;8.18;;;2.30;;
54193;SDS011;40102;50.906;6.972;2023-02-28T14:36:49;3.58;;;1.98;;
54193;SDS011;40102;50.906;6.972;2023-02-28T14:39:18;4.45;;;2.38;;
54193;SDS011;40102;50.906;6.972;2023-02-28T14:41:47;3.78;;;2.38;;
54193;SDS011;40102;50.906;6.972;2023-02-28T14:44:15;4.88;;;2.38;;
54193;SDS011;40102;50.906;6.972;2023-02-28T14:46:46;4.50;;;2.60;;
54193;SDS011;40102;50.906;6.972;2023-02-28T14:49:28;3.42;;;2.38;;
54193;SDS011;40102;50.906;6.972;2023-02-28T14:52:05;4.75;;;2.45;;
54193;SDS011;40102;50.906;6.972;2023-02-28T14:54:46;3.78;;;2.10;;
54193;SDS011;40102;50.906;6.972;2023-02-28T14:57:25;3.30;;;2.13;;
54193;SDS011;40102;50.906;6.972;2023-02-28T15:02:26;3.22;;;2.40;;
54193;SDS011;40102;50.906;6.972;2023-02-28T15:07:25;4.73;;;2.30;;
54193;SDS011;40102;50.906;6.972;2023-02-28T15:12:45;3.40;;;2.13;;
54193;SDS011;40102;50.906;6.972;2023-02-28T15:16:10;4.07;;;2.55;;
54193;SDS011;40102;50.906;6.972;2023-02-28T15:20:59;3.22;;;2.13;;
54193;SDS011;40102;50.906;6.972;2023-02-28T15:23:29;5.43;;;2.45;;
54193;SDS011;40102;50.906;6.972;2023-02-28T15:25:59;4.13;;;2.50;;
54193;SDS011;40102;50.906;6.972;2023-02-28T15:28:25;3.50;;;1.88;;
54193;SDS011;40102;50.906;6.972;2023-02-28T15:30:55;4.43;;;2.20;;
54193;SDS011;40102;50.906;6.972;2023-02-28T15:33:31;3.67;;;2.42;;
54193;SDS011;40102;50.906;6.972;2023-02-28T15:36:04;2.75;;;2.17;;
54193;SDS011;40102;50.906;6.972;2023-02-28T15:38:42;5.63;;;2.30;;
54193;SDS011;40102;50.906;6.972;2023-02-28T15:41:22;3.72;;;2.10;;
54193;SDS011;40102;50.906;6.972;2023-02-28T15:43:57;2.88;;;2.28;;
54193;SDS011;40102;50.906;6.972;2023-02-28T15:49:19;5.22;;;2.30;;
54193;SDS011;40102;50.906;6.972;2023-02-28T15:51:46;3.70;;;2.30;;
54193;SDS011;40102;50.906;6.972;2023-02-28T15:54:23;4.32;;;2.10;;
54193;SDS011;40102;50.906;6.972;2023-02-28T15:56:52;3.97;;;2.33;;
54193;SDS011;40102;50.906;6.972;2023-02-28T15:59:25;3.13;;;2.33;;
54193;SDS011;40102;50.906;6.972;2023-02-28T16:02:13;4.45;;;2.40;;
54193;SDS011;40102;50.906;6.972;2023-02-28T16:04:55;3.47;;;2.20;;
54193;SDS011;40102;50.906;6.972;2023-02-28T16:07:21;2.55;;;2.05;;
54193;SDS011;40102;50.906;6.972;2023-02-28T16:09:46;3.95;;;2.28;;
54193;SDS011;40102;50.906;6.972;2023-02-28T16:12:13;4.13;;;2.25;;
54193;SDS011;40102;50.906;6.972;2023-02-28T16:14:39;3.53;;;2.00;;
54193;SDS011;40102;50.906;6.972;2023-02-28T16:17:06;3.22;;;2.08;;
54193;SDS011;40102;50.906;6.972;2023-02-28T16:19:41;5.03;;;2.35;;
54193;SDS011;40102;50.906;6.972;2023-02-28T16:22:07;3.97;;;2.25;;
54193;SDS011;40102;50.906;6.972;2023-02-28T16:24:34;3.90;;;2.13;;
54193;SDS011;40102;50.906;6.972;2023-02-28T16:26:59;2.67;;;2.00;;
54193;SDS011;40102;50.906;6.972;2023-02-28T16:29:29;3.58;;;2.25;;
54193;SDS011;40102;50.906;6.972;2023-02-28T16:31:57;4.40;;;2.25;;
54193;SDS011;40102;50.906;6.972;2023-02-28T16:34:25;3.75;;;2.40;;
54193;SDS011;40102;50.906;6.972;2023-02-28T16:36:51;3.40;;;2.05;;
54193;SDS011;40102;50.906;6.972;2023-02-28T16:39:16;2.92;;;1.95;;
54193;SDS011;40102;50.906;6.972;2023-02-28T16:41:43;3.92;;;1.95;;
54193;SDS011;40102;50.906;6.972;2023-02-28T16:44:12;2.70;;;2.00;;
54193;SDS011;40102;50.906;6.972;2023-02-28T16:46:44;3.20;;;2.28;;
54193;SDS011;40102;50.906;6.972;2023-02-28T16:49:10;4.80;;;2.58;;
54193;SDS011;40102;50.906;6.972;2023-02-28T16:51:37;7.25;;;2.17;;
54193;SDS011;40102;50.906;6.972;2023-02-28T16:54:02;4.38;;;2.50;;
54193;SDS011;40102;50.906;6.972;2023-02-28T16:56:27;3.80;;;2.10;;
54193;SDS011;40102;50.906;6.972;2023-02-28T16:58:54;3.15;;;2.05;;
54193;SDS011;40102;50.906;6.972;2023-02-28T17:01:22;4.25;;;2.13;;
54193;SDS011;40102;50.906;6.972;2023-02-28T17:03:48;3.13;;;2.47;;
54193;SDS011;40102;50.906;6.972;2023-02-28T17:06:21;4.35;;;2.10;;
54193;SDS011;40102;50.906;6.972;2023-02-28T17:08:49;4.30;;;2.08;;
54193;SDS011;40102;50.906;6.972;2023-02-28T17:11:16;3.72;;;2.33;;
54193;SDS011;40102;50.906;6.972;2023-02-28T17:13:43;4.45;;;2.50;;
54193;SDS011;40102;50.906;6.972;2023-02-28T17:16:14;3.92;;;2.70;;
54193;SDS011;40102;50.906;6.972;2023-02-28T17:18:40;3.55;;;2.50;;
54193;SDS011;40102;50.906;6.972;2023-02-28T17:21:09;4.82;;;2.83;;